Date,TemperatureHighF,TemperatureAvgF,TemperatureLowF,DewpointHighF,DewpointAvgF,DewpointLowF,HumidityHigh,HumidityAvg,HumidityLow,PressureMaxIn,PressureMinIn,WindSpeedMaxMPH,WindSpeedAvgMPH,GustSpeedMaxMPH,PrecipitationSumIn
2013-1-1,30,28,27,-100,-100,-100,0,0,100,0.00,40.00,0,-999,0,0.00
2013-1-2,28,27,25,-100,-100,-100,0,0,100,0.00,40.00,0,-999,0,0.00
2013-1-3,27,21,16,-100,-100,-100,0,0,100,0.00,40.00,0,-999,0,0.00
2013-1-4,32,26,21,-100,-100,-100,0,0,100,0.00,40.00,0,-999,0,0.00
2013-1-5,28,27,23,-100,-100,-100,0,0,100,0.00,40.00,0,-999,0,0.00
2013-1-6,32,28,23,-100,-100,-100,0,0,100,0.00,40.00,0,-999,0,0.00
2013-1-7,48,40,27,-100,-100,-100,0,0,100,0.00,40.00,0,-999,0,0.00
2013-1-8,52,45,36,-100,-100,-100,0,0,100,0.00,40.00,0,-999,0,0.00
2013-1-9,54,42,34,-100,-100,-100,0,0,100,0.00,40.00,0,-999,0,0.00
2013-1-10,37,31,28,-100,-100,-100,0,0,100,0.00,40.00,0,-999,0,0.00
2013-1-11,50,26,19,-100,-100,-100,0,0,100,0.00,40.00,0,-999,0,0.00
2013-1-12,27,20,10,-100,-100,-100,0,0,100,0.00,40.00,0,-999,0,0.00
2013-1-13,27,21,10,-100,-100,-100,0,0,100,0.00,40.00,0,-999,0,0.00
2013-1-14,32,24,19,-100,-100,-100,0,0,100,0.00,40.00,0,-999,0,0.00
2013-1-15,32,23,16,-100,-100,-100,0,0,100,0.00,40.00,0,-999,0,0.00
2013-1-16,25,21,14,-100,-100,-100,0,0,100,0.00,40.00,0,-999,0,0.00
2013-1-17,28,25,23,-100,-100,-100,0,0,100,0.00,40.00,0,-999,0,0.00
2013-1-18,27,25,23,-100,-100,-100,0,0,100,0.00,40.00,0,-999,0,0.00
2013-1-19,28,26,25,-100,-100,-100,0,0,100,0.00,40.00,0,-999,0,0.00
2013-1-20,27,25,25,-100,-100,-100,0,0,100,0.00,40.00,0,-999,0,0.00
2013-1-21,25,24,21,-100,-100,-100,0,0,100,0.00,40.00,0,-999,0,0.00
2013-1-22,23,22,21,-100,-100,-100,0,0,100,0.00,40.00,0,-999,0,0.00
2013-1-23,25,24,23,-100,-100,-100,0,0,100,0.00,40.00,0,-999,0,0.00
2013-1-24,30,27,21,-100,-100,-100,0,0,100,0.00,40.00,0,-999,0,0.00
2013-1-25,30,29,27,-100,-100,-100,0,0,100,0.00,40.00,0,-999,0,0.00
2013-1-26,34,32,30,-100,-100,-100,0,0,100,0.00,40.00,0,-999,0,0.00
2013-1-27,41,34,30,-100,-100,-100,0,0,100,0.00,40.00,0,-999,0,0.00
2013-1-28,39,36,32,-100,-100,-100,0,0,100,0.00,40.00,0,-999,0,0.00
2013-1-29,45,41,32,-100,-100,-100,0,0,100,0.00,40.00,0,-999,0,0.00
2013-1-30,48,43,39,-100,-100,-100,0,0,100,0.00,40.00,0,-999,0,0.00
2013-1-31,52,45,41,-100,-100,-100,0,0,100,0.00,40.00,0,-999,0,0.00
2013-2-1,50,38,30,-100,-100,-100,0,0,100,0.00,40.00,0,-999,0,0.00
2013-2-2,57,29,-24,-100,-100,-100,0,0,100,0.00,40.00,0,-999,0,0.00
2013-2-3,48,35,30,-100,-100,-100,0,0,100,0.00,40.00,0,-999,0,0.00
2013-2-4,46,37,32,-100,-100,-100,0,0,100,0.00,40.00,0,-999,0,0.00
2013-2-5,48,38,28,-100,-100,-100,0,0,100,0.00,40.00,0,-999,0,0.00
2013-2-6,50,41,37,-100,-100,-100,0,0,100,0.00,40.00,0,-999,0,0.00
2013-2-7,41,36,28,-100,-100,-100,0,0,100,0.00,40.00,0,-999,0,0.00
2013-2-8,39,31,25,-100,-100,-100,0,0,100,0.00,40.00,0,-999,0,0.00
2013-2-9,43,33,21,-100,-100,-100,0,0,100,0.00,40.00,0,-999,0,0.00
2013-2-10,46,32,19,-100,-100,-100,0,0,100,0.00,40.00,0,-999,0,0.00
2013-2-11,45,32,23,-100,-100,-100,0,0,100,0.00,40.00,0,-999,0,0.00
2013-2-12,50,43,28,-100,-100,-100,0,0,100,0.00,40.00,0,-999,0,0.00
2013-2-13,50,43,30,-100,-100,-100,0,0,100,0.00,40.00,0,-999,0,0.00
2013-2-14,52,40,-4,-100,-100,-100,0,0,100,0.00,40.00,0,-999,0,0.00
2013-2-15,55,38,-4,-100,-100,-100,0,0,100,0.00,40.00,0,-999,0,0.00
2013-2-16,52,36,23,-100,-100,-100,0,0,100,0.00,40.00,0,-999,0,0.00
2013-2-17,48,37,27,-100,-100,-100,0,0,100,0.00,40.00,0,-999,0,0.00
2013-2-18,43,32,23,-100,-100,-100,0,0,100,0.00,40.00,0,-999,0,0.00
2013-2-19,45,35,28,-100,-100,-100,0,0,100,0.00,40.00,0,-999,0,0.00
2013-2-20,45,36,25,-100,-100,-100,0,0,100,0.00,40.00,0,-999,0,0.00
2013-2-21,45,38,23,-100,-100,-100,0,0,100,0.00,40.00,0,-999,0,0.00
2013-2-22,45,41,37,-100,-100,-100,0,0,100,0.00,40.00,0,-999,0,0.00
2013-2-23,48,38,32,-100,-100,-100,0,0,100,0.00,40.00,0,-999,0,0.00
2013-2-24,45,37,30,-100,-100,-100,0,0,100,0.00,40.00,0,-999,0,0.00
2013-2-25,46,38,32,-100,-100,-100,0,0,100,0.00,40.00,0,-999,0,0.00
2013-2-26,46,35,30,-100,-100,-100,0,0,100,0.00,40.00,0,-999,0,0.00
2013-2-27,55,45,32,-100,-100,-100,0,0,100,0.00,40.00,0,-999,0,0.00
2013-2-28,48,45,39,-100,-100,-100,0,0,100,0.00,40.00,0,-999,0,0.00
2013-3-1,59,52,45,-100,-100,-100,0,0,100,0.00,40.00,0,-999,0,0.00
2013-4-22,56,52,37,-100,-100,-100,0,0,100,0.00,40.00,0,-999,0,0.00
2013-4-23,61,47,26,-100,-100,-100,0,0,100,0.00,40.00,0,-999,0,0.00
2013-4-24,69,52,19,-100,-100,-100,0,0,100,0.00,40.00,0,-999,0,0.00
2013-4-25,75,60,31,-100,-100,-100,0,0,100,0.00,40.00,0,-999,0,0.00
2013-4-26,80,62,38,-100,-100,-100,0,0,100,0.00,40.00,0,-999,0,0.00
2013-4-27,75,62,45,-100,-100,-100,0,0,100,0.00,40.00,0,-999,0,0.00
2013-4-28,67,57,37,-100,-100,-100,0,0,100,0.00,40.00,0,-999,0,0.00
2013-4-29,57,53,35,-100,-100,-100,0,0,100,0.00,40.00,0,-999,0,0.00
2013-4-30,54,47,33,-100,-100,-100,0,0,100,0.00,40.00,0,-999,0,0.00
2013-5-1,61,47,22,-100,-100,-100,0,0,100,0.00,40.00,0,-999,0,0.00
2013-5-2,75,55,24,-100,-100,-100,0,0,100,0.00,40.00,0,-999,0,0.00
2013-5-3,76,62,38,-100,-100,-100,0,0,100,0.00,40.00,0,-999,0,0.00
2013-5-4,76,66,38,-100,-100,-100,0,0,100,0.00,40.00,0,-999,0,0.00
2013-5-5,82,65,45,-100,-100,-100,0,0,100,0.00,40.00,0,-999,0,0.00
2013-5-6,90,72,37,-100,-100,-100,0,0,100,0.00,40.00,0,-999,0,0.00
2013-5-7,92,74,45,-100,-100,-100,0,0,100,0.00,40.00,0,-999,0,0.00
2013-5-8,90,75,59,-100,-100,-100,0,0,100,0.00,40.00,0,-999,0,0.00
2013-5-9,90,68,56,-100,-100,-100,0,0,100,0.00,40.00,0,-999,0,0.00
2013-5-10,95,73,52,-100,-100,-100,0,0,100,0.00,40.00,0,-999,0,0.00
2013-5-11,92,75,56,-100,-100,-100,0,0,100,0.00,40.00,0,-999,0,0.00
2013-5-12,90,77,61,-100,-100,-100,0,0,100,0.00,40.00,0,-999,0,0.00
2013-5-13,67,60,47,-100,-100,-100,0,0,100,0.00,40.00,0,-999,0,0.00
2013-5-14,67,55,40,-100,-100,-100,0,0,100,0.00,40.00,0,-999,0,0.00
2013-5-15,71,56,35,-100,-100,-100,0,0,100,0.00,40.00,0,-999,0,0.00
2013-5-16,71,56,47,-100,-100,-100,0,0,100,0.00,40.00,0,-999,0,0.00
2013-5-17,69,58,48,-100,-100,-100,0,0,100,0.00,40.00,0,-999,0,0.00
2013-5-18,66,56,45,-100,-100,-100,0,0,100,0.00,40.00,0,-999,0,0.00
2013-5-19,71,60,47,-100,-100,-100,0,0,100,0.00,40.00,0,-999,0,0.00
2013-5-20,78,62,45,-100,-100,-100,0,0,100,0.00,40.00,0,-999,0,0.00
2013-5-21,64,54,45,-100,-100,-100,0,0,100,0.00,40.00,0,-999,0,0.00
2013-5-22,50,43,35,-100,-100,-100,0,0,100,0.00,40.00,0,-999,0,0.00
2013-5-23,66,53,29,-100,-100,-100,0,0,100,0.00,40.00,0,-999,0,0.00
2013-5-24,61,51,40,-100,-100,-100,0,0,100,0.00,40.00,0,-999,0,0.00
2013-5-25,69,55,43,-100,-100,-100,0,0,100,0.00,40.00,0,-999,0,0.00
2013-5-26,66,53,40,-100,-100,-100,0,0,100,0.00,40.00,0,-999,0,0.00
2013-5-27,64,53,48,-100,-100,-100,0,0,100,0.00,40.00,0,-999,0,0.00
2013-5-28,71,62,50,-100,-100,-100,0,0,100,0.00,40.00,0,-999,0,0.00
2013-5-29,64,54,45,-100,-100,-100,0,0,100,0.00,40.00,0,-999,0,0.00
2013-5-30,67,55,45,-100,-100,-100,0,0,100,0.00,40.00,0,-999,0,0.00
2013-5-31,71,58,45,-100,-100,-100,0,0,100,0.00,40.00,0,-999,0,0.00
2013-6-1,76,66,37,-100,-100,-100,0,0,100,0.00,40.00,0,-999,0,0.00
2013-6-2,76,69,38,-100,-100,-100,0,0,100,0.00,40.00,0,-999,0,0.00
2013-6-3,78,63,43,-100,-100,-100,0,0,100,0.00,40.00,0,-999,0,0.00
2013-6-4,85,69,40,-100,-100,-100,0,0,100,0.00,40.00,0,-999,0,0.00
2013-6-5,90,68,47,-100,-100,-100,0,0,100,0.00,40.00,0,-999,0,0.00
2013-6-6,92,76,54,-100,-100,-100,0,0,100,0.00,40.00,0,-999,0,0.00
2013-6-7,88,71,61,-100,-100,-100,0,0,100,0.00,40.00,0,-999,0,0.00
2013-6-8,86,71,47,-100,-100,-100,0,0,100,0.00,40.00,0,-999,0,0.00
2013-6-9,85,69,52,-100,-100,-100,0,0,100,0.00,40.00,0,-999,0,0.00
2013-6-10,78,67,40,-100,-100,-100,0,0,100,0.00,40.00,0,-999,0,0.00
2013-6-11,71,61,52,-100,-100,-100,0,0,100,0.00,40.00,0,-999,0,0.00
2013-6-12,73,59,45,-100,-100,-100,0,0,100,0.00,40.00,0,-999,0,0.00
2013-6-13,71,59,47,-100,-100,-100,0,0,100,0.00,40.00,0,-999,0,0.00
2013-6-14,75,65,47,-100,-100,-100,0,0,100,0.00,40.00,0,-999,0,0.00
2013-6-15,90,74,45,-100,-100,-100,0,0,100,0.00,40.00,0,-999,0,0.00
2013-6-16,95,76,52,-100,-100,-100,0,0,100,0.00,40.00,0,-999,0,0.00
2013-6-17,86,74,61,-100,-100,-100,0,0,100,0.00,40.00,0,-999,0,0.00
2013-6-18,69,60,56,-100,-100,-100,0,0,100,0.00,40.00,0,-999,0,0.00
2013-6-19,66,60,50,-100,-100,-100,0,0,100,0.00,40.00,0,-999,0,0.00
2013-6-20,66,54,50,-100,-100,-100,0,0,100,0.00,40.00,0,-999,0,0.00
2013-6-22,76,69,54,-100,-100,-100,0,0,100,0.00,40.00,0,-999,0,0.00
2013-6-23,76,65,47,-100,-100,-100,0,0,100,0.00,40.00,0,-999,0,0.00
2013-6-24,67,60,57,-100,-100,-100,0,0,100,0.00,40.00,0,-999,0,0.00
2013-6-25,69,59,52,-100,-100,-100,0,0,100,0.00,40.00,0,-999,0,0.00
2013-6-26,69,62,56,-100,-100,-100,0,0,100,0.00,40.00,0,-999,0,0.00
2013-6-27,86,72,57,-100,-100,-100,0,0,100,0.00,40.00,0,-999,0,0.00
2013-6-28,97,82,61,-100,-100,-100,0,0,100,0.00,40.00,0,-999,0,0.00
2013-6-29,97,80,66,-100,-100,-100,0,0,100,0.00,40.00,0,-999,0,0.00
2013-6-30,101,75,64,-100,-100,-100,0,0,100,0.00,40.00,0,-999,0,0.00
2013-7-1,109,90,67,-100,-100,-100,0,0,100,0.00,40.00,0,-999,0,0.00
2013-7-2,107,89,73,-100,-100,-100,0,0,100,0.00,40.00,0,-999,0,0.00
2013-7-3,95,86,71,-100,-100,-100,0,0,100,0.00,40.00,0,-999,0,0.00
2013-7-4,90,75,64,-100,-100,-100,0,0,100,0.00,40.00,0,-999,0,0.00
2013-7-5,82,71,56,-100,-100,-100,0,0,100,0.00,40.00,0,-999,0,0.00
2013-7-6,92,69,59,-100,-100,-100,0,0,100,0.00,40.00,0,-999,0,0.00
2013-7-7,95,83,54,-100,-100,-100,0,0,100,0.00,40.00,0,-999,0,0.00
2013-7-8,94,77,64,-100,-100,-100,0,0,100,0.00,40.00,0,-999,0,0.00
2013-7-9,101,79,52,-100,-100,-100,0,0,100,0.00,40.00,0,-999,0,0.00
2013-7-10,101,88,64,-100,-100,-100,0,0,100,0.00,40.00,0,-999,0,0.00
2013-7-11,86,75,57,-100,-100,-100,0,0,100,0.00,40.00,0,-999,0,0.00
2013-7-12,85,72,56,-100,-100,-100,0,0,100,0.00,40.00,0,-999,0,0.00
2013-7-13,85,71,50,-100,-100,-100,0,0,100,0.00,40.00,0,-999,0,0.00
2013-7-14,94,75,43,-100,-100,-100,0,0,100,0.00,40.00,0,-999,0,0.00
2013-7-15,90,77,48,-100,-100,-100,0,0,100,0.00,40.00,0,-999,0,0.00
2013-7-16,99,80,57,-100,-100,-100,0,0,100,0.00,40.00,0,-999,0,0.00
2013-7-17,101,87,66,-100,-100,-100,0,0,100,0.00,40.00,0,-999,0,0.00
2013-7-18,99,85,64,-100,-100,-100,0,0,100,0.00,40.00,0,-999,0,0.00
2013-7-19,101,80,56,-100,-100,-100,0,0,100,0.00,40.00,0,-999,0,0.00
2013-7-20,99,84,57,-100,-100,-100,0,0,100,0.00,40.00,0,-999,0,0.00
2013-7-21,97,86,64,-100,-100,-100,0,0,100,0.00,40.00,0,-999,0,0.00
2013-7-22,99,87,69,-100,-100,-100,0,0,100,0.00,40.00,0,-999,0,0.00
2013-7-23,103,79,59,-100,-100,-100,0,0,100,0.00,40.00,0,-999,0,0.00
2013-7-24,101,84,59,-100,-100,-100,0,0,100,0.00,40.00,0,-999,0,0.00
2013-7-25,103,80,64,-100,-100,-100,0,0,100,0.00,40.00,0,-999,0,0.00
2013-7-26,99,79,56,-100,-100,-100,0,0,100,0.00,40.00,0,-999,0,0.00
2013-7-27,92,79,66,-100,-100,-100,0,0,100,0.00,40.00,0,-999,0,0.00
2013-7-28,86,75,59,-100,-100,-100,0,0,100,0.00,40.00,0,-999,0,0.00
2013-7-29,92,74,59,-100,-100,-100,0,0,100,0.00,40.00,0,-999,0,0.00
2013-7-30,92,74,59,-100,-100,-100,0,0,100,0.00,40.00,0,-999,0,0.00
2013-7-31,57,55,50,-100,-100,-100,0,0,100,0.00,40.00,0,-999,0,0.00
2013-8-2,75,69,59,-100,-100,-100,0,0,100,0.00,40.00,0,-999,0,0.00
2013-8-3,82,70,59,-100,-100,-100,0,0,100,0.00,40.00,0,-999,0,0.00
2013-8-4,90,74,52,-100,-100,-100,0,0,100,0.00,40.00,0,-999,0,0.00
2013-8-5,94,71,57,-100,-100,-100,0,0,100,0.00,40.00,0,-999,0,0.00
2013-8-6,99,79,59,-100,-100,-100,0,0,100,0.00,40.00,0,-999,0,0.00
2013-8-7,99,80,59,-100,-100,-100,0,0,100,0.00,40.00,0,-999,0,0.00
2013-8-8,97,79,66,-100,-100,-100,0,0,100,0.00,40.00,0,-999,0,0.00
2013-8-9,99,76,59,-100,-100,-100,0,0,100,0.00,40.00,0,-999,0,0.00
2013-8-10,92,77,66,-100,-100,-100,0,0,100,0.00,40.00,0,-999,0,0.00
2013-8-11,88,77,64,-100,-100,-100,0,0,100,0.00,40.00,0,-999,0,0.00
2013-8-12,92,79,61,-100,-100,-100,0,0,100,0.00,40.00,0,-999,0,0.00
2013-8-13,95,80,66,-100,-100,-100,0,0,100,0.00,40.00,0,-999,0,0.00
2013-8-14,92,73,54,-100,-100,-100,0,0,100,0.00,40.00,0,-999,0,0.00
2013-8-15,99,79,67,-100,-100,-100,0,0,100,0.00,40.00,0,-999,0,0.00
2013-8-16,92,77,61,-100,-100,-100,0,0,100,0.00,40.00,0,-999,0,0.00
2013-8-17,92,79,69,-100,-100,-100,0,0,100,0.00,40.00,0,-999,0,0.00
2013-8-18,92,79,56,-100,-100,-100,0,0,100,0.00,40.00,0,-999,0,0.00
2013-8-19,92,78,66,-100,-100,-100,0,0,100,0.00,40.00,0,-999,0,0.00
2013-8-20,88,78,50,-100,-100,-100,0,0,100,0.00,40.00,0,-999,0,0.00
2013-8-21,92,76,47,-100,-100,-100,0,0,100,0.00,40.00,0,-999,0,0.00
2013-8-22,90,76,52,-100,-100,-100,0,0,100,0.00,40.00,0,-999,0,0.00
2013-8-23,90,76,66,-100,-100,-100,0,0,100,0.00,40.00,0,-999,0,0.00
2013-8-24,86,74,61,-100,-100,-100,0,0,100,0.00,40.00,0,-999,0,0.00
2013-8-25,86,72,59,-100,-100,-100,0,0,100,0.00,40.00,0,-999,0,0.00
2013-8-26,82,68,56,-100,-100,-100,0,0,100,0.00,40.00,0,-999,0,0.00
2013-8-27,80,61,54,-100,-100,-100,0,0,100,0.00,40.00,0,-999,0,0.00
2013-8-28,92,88,80,-100,-100,-100,0,0,100,0.00,40.00,0,-999,0,0.00
2013-8-29,92,77,52,-100,-100,-100,0,0,100,0.00,40.00,0,-999,0,0.00
2013-8-30,90,77,59,-100,-100,-100,0,0,100,0.00,40.00,0,-999,0,0.00
2013-8-31,95,75,48,-100,-100,-100,0,0,100,0.00,40.00,0,-999,0,0.00
2013-9-1,94,78,50,-100,-100,-100,0,0,100,0.00,40.00,0,-999,0,0.00
2013-9-2,90,79,67,-100,-100,-100,0,0,100,0.00,40.00,0,-999,0,0.00
2013-9-3,92,77,67,-100,-100,-100,0,0,100,0.00,40.00,0,-999,0,0.00
2013-9-4,92,75,66,-100,-100,-100,0,0,100,0.00,40.00,0,-999,0,0.00
2013-9-5,86,70,59,-100,-100,-100,0,0,100,0.00,40.00,0,-999,0,0.00
2013-9-6,71,65,56,-100,-100,-100,0,0,100,0.00,40.00,0,-999,0,0.00
2013-9-7,78,64,47,-100,-100,-100,0,0,100,0.00,40.00,0,-999,0,0.00
2013-9-8,80,68,59,-100,-100,-100,0,0,100,0.00,40.00,0,-999,0,0.00
2013-9-9,90,73,54,-100,-100,-100,0,0,100,0.00,40.00,0,-999,0,0.00
2013-9-10,94,84,69,-100,-100,-100,0,0,100,0.00,40.00,0,-999,0,0.00
2013-9-11,95,82,54,-100,-100,-100,0,0,100,0.00,40.00,0,-999,0,0.00
2013-9-12,90,79,61,-100,-100,-100,0,0,100,0.00,40.00,0,-999,0,0.00
2013-9-13,94,76,57,-100,-100,-100,0,0,100,0.00,40.00,0,-999,0,0.00
2013-9-14,95,78,64,-100,-100,-100,0,0,100,0.00,40.00,0,-999,0,0.00
2013-9-15,97,74,57,-100,-100,-100,0,0,100,0.00,40.00,0,-999,0,0.00
2013-9-16,76,67,57,-100,-100,-100,0,0,100,0.00,40.00,0,-999,0,0.00
2013-9-17,59,57,56,-100,-100,-100,0,0,100,0.00,40.00,0,-999,0,0.00
2013-9-18,54,52,50,-100,-100,-100,0,0,100,0.00,40.00,0,-999,0,0.00
2013-9-19,80,64,43,-100,-100,-100,0,0,100,0.00,40.00,0,-999,0,0.00
2013-9-20,78,69,52,-100,-100,-100,0,0,100,0.00,40.00,0,-999,0,0.00
2013-9-21,69,63,57,-100,-100,-100,0,0,100,0.00,40.00,0,-999,0,0.00
2013-9-22,66,57,50,-100,-100,-100,0,0,100,0.00,40.00,0,-999,0,0.00
2013-9-23,64,58,50,-100,-100,-100,0,0,100,0.00,40.00,0,-999,0,0.00
2013-9-24,61,54,47,-100,-100,-100,0,0,100,0.00,40.00,0,-999,0,0.00
2013-9-25,66,50,40,-100,-100,-100,0,0,100,0.00,40.00,0,-999,0,0.00
2013-9-26,64,53,45,-100,-100,-100,0,0,100,0.00,40.00,0,-999,0,0.00
2013-9-27,56,49,45,-100,-100,-100,0,0,100,0.00,40.00,0,-999,0,0.00
2013-9-28,67,60,48,-100,-100,-100,0,0,100,0.00,40.00,0,-999,0,0.00
2013-9-29,57,53,48,-100,-100,-100,0,0,100,0.00,40.00,0,-999,0,0.00
2013-9-30,64,57,48,-100,-100,-100,0,0,100,0.00,40.00,0,-999,0,0.00
2013-10-1,50,44,43,-100,-100,-100,0,0,100,0.00,40.00,0,-999,0,0.00
2013-10-2,56,47,35,-100,-100,-100,0,0,100,0.00,40.00,0,-999,0,0.00
2013-10-3,61,54,40,-100,-100,-100,0,0,100,0.00,40.00,0,-999,0,0.00
2013-10-4,64,53,35,-100,-100,-100,0,0,100,0.00,40.00,0,-999,0,0.00
2013-10-5,71,55,33,-100,-100,-100,0,0,100,0.00,40.00,0,-999,0,0.00
2013-10-6,69,62,47,-100,-100,-100,0,0,100,0.00,40.00,0,-999,0,0.00
2013-10-7,64,53,40,-100,-100,-100,0,0,100,0.00,40.00,0,-999,0,0.00
2013-10-8,56,47,38,-100,-100,-100,0,0,100,0.00,40.00,0,-999,0,0.00
2013-10-9,52,45,37,-100,-100,-100,0,0,100,0.00,40.00,0,-999,0,0.00
2013-10-10,59,48,40,-100,-100,-100,0,0,100,0.00,40.00,0,-999,0,0.00
2013-10-11,59,48,43,-100,-100,-100,0,0,100,0.00,40.00,0,-999,0,0.00
2013-10-12,52,48,43,-100,-100,-100,0,0,100,0.00,40.00,0,-999,0,0.00
2013-10-13,59,51,37,-100,-100,-100,0,0,100,0.00,40.00,0,-999,0,0.00
2013-10-21,67,58,45,-100,-100,-100,0,0,100,0.00,40.00,0,-999,0,0.00
2013-10-22,67,56,38,-100,-100,-100,0,0,100,0.00,40.00,0,-999,0,0.00
2013-10-23,61,50,31,-100,-100,-100,0,0,100,0.00,40.00,0,-999,0,0.00
2013-10-24,61,46,31,-100,-100,-100,0,0,100,0.00,40.00,0,-999,0,0.00
2013-10-25,61,54,45,-100,-100,-100,0,0,100,0.00,40.00,0,-999,0,0.00
2013-10-26,57,49,33,-100,-100,-100,0,0,100,0.00,40.00,0,-999,0,0.00
2013-10-27,47,42,35,-100,-100,-100,0,0,100,0.00,40.00,0,-999,0,0.00
2013-10-28,52,45,37,-100,-100,-100,0,0,100,0.00,40.00,0,-999,0,0.00
2013-10-29,47,40,22,-100,-100,-100,0,0,100,0.00,40.00,0,-999,0,0.00
2013-10-30,54,49,40,-100,-100,-100,0,0,100,0.00,40.00,0,-999,0,0.00
2013-10-31,66,53,43,-100,-100,-100,0,0,100,0.00,40.00,0,-999,0,0.00
2013-11-1,64,48,43,-100,-100,-100,0,0,100,0.00,40.00,0,-999,0,0.00
2013-11-2,56,46,40,-100,-100,-100,0,0,100,0.00,40.00,0,-999,0,0.00
2013-11-3,48,41,35,-100,-100,-100,0,0,100,0.00,40.00,0,-999,0,0.00
2013-11-4,45,38,26,-100,-100,-100,0,0,100,0.00,40.00,0,-999,0,0.00
2013-11-5,40,34,28,-100,-100,-100,0,0,100,0.00,40.00,0,-999,0,0.00
2013-11-6,43,39,35,-100,-100,-100,0,0,100,0.00,40.00,0,-999,0,0.00
2013-11-7,45,41,35,-100,-100,-100,0,0,100,0.00,40.00,0,-999,0,0.00
2013-11-8,50,45,40,-100,-100,-100,0,0,100,0.00,40.00,0,-999,0,0.00
2013-11-9,43,38,35,-100,-100,-100,0,0,100,0.00,40.00,0,-999,0,0.00
2013-11-10,47,41,37,-100,-100,-100,0,0,100,0.00,40.00,0,-999,0,0.00
2013-11-11,40,36,31,-100,-100,-100,0,0,100,0.00,40.00,0,-999,0,0.00
2013-11-12,48,42,35,-100,-100,-100,0,0,100,0.00,40.00,0,-999,0,0.00
2013-11-13,56,48,29,-100,-100,-100,0,0,100,0.00,40.00,0,-999,0,0.00
2013-11-14,38,34,31,-100,-100,-100,0,0,100,0.00,40.00,0,-999,0,0.00
2013-11-15,43,38,33,-100,-100,-100,0,0,100,0.00,40.00,0,-999,0,0.00
2013-11-16,50,43,37,-100,-100,-100,0,0,100,0.00,40.00,0,-999,0,0.00
2013-11-17,54,45,37,-100,-100,-100,0,0,100,0.00,40.00,0,-999,0,0.00
2013-11-18,54,49,45,-100,-100,-100,0,0,100,0.00,40.00,0,-999,0,0.00
2013-11-19,54,50,43,-100,-100,-100,0,0,100,0.00,40.00,0,-999,0,0.00
2013-11-22,28,21,18,-100,-100,-100,0,0,100,0.00,40.00,0,-999,0,0.00
2013-11-24,28,21,12,-100,-100,-100,0,0,100,0.00,40.00,0,-999,0,0.00
2013-11-25,31,26,18,-100,-100,-100,0,0,100,0.00,40.00,0,-999,0,0.00
2013-11-26,31,26,18,-100,-100,-100,0,0,100,0.00,40.00,0,-999,0,0.00
2013-11-27,29,26,16,-100,-100,-100,0,0,100,0.00,40.00,0,-999,0,0.00
2013-11-28,24,20,16,-100,-100,-100,0,0,100,0.00,40.00,0,-999,0,0.00
2013-11-29,16,16,16,-100,-100,-100,0,0,100,0.00,40.00,0,-999,0,0.00
2013-11-30,29,27,26,-100,-100,-100,0,0,100,0.00,40.00,0,-999,0,0.00
2013-12-1,56,49,29,-100,-100,-100,0,0,100,0.00,40.00,0,-999,0,0.00
2013-12-2,48,42,38,-100,-100,-100,0,0,100,0.00,40.00,0,-999,0,0.00
2013-12-3,26,26,26,-100,-100,-100,0,0,100,0.00,40.00,0,-999,0,0.00
2013-12-5,12,11,10,-100,-100,-100,0,0,100,0.00,40.00,0,-999,0,0.00
2013-12-10,19,19,19,-100,-100,-100,0,0,100,0.00,40.00,0,-999,0,0.00
2013-12-11,22,22,22,-100,-100,-100,0,0,100,0.00,40.00,0,-999,0,0.00
2013-12-12,24,22,16,-100,-100,-100,0,0,100,0.00,40.00,0,-999,0,0.00
2013-12-13,26,25,24,-100,-100,-100,0,0,100,0.00,40.00,0,-999,0,0.00
2013-12-14,28,27,26,-100,-100,-100,0,0,100,0.00,40.00,0,-999,0,0.00
2013-12-15,52,47,37,-100,-100,-100,0,0,100,0.00,40.00,0,-999,0,0.00
2013-12-16,47,39,33,-100,-100,-100,0,0,100,0.00,40.00,0,-999,0,0.00
2013-12-17,29,28,28,-100,-100,-100,0,0,100,0.00,40.00,0,-999,0,0.00
2013-12-18,40,39,37,-100,-100,-100,0,0,100,0.00,40.00,0,-999,0,0.00
2013-12-19,24,24,24,-100,-100,-100,0,0,100,0.00,40.00,0,-999,0,0.00
2013-12-20,31,30,28,-100,-100,-100,0,0,100,0.00,40.00,0,-999,0,0.00
2013-12-21,26,25,22,-100,-100,-100,0,0,100,0.00,40.00,0,-999,0,0.00